CPR1 weather

Roths field
Ontario, Canada

Public forecast

Using degrees Celsius for public forecast. Weather courtesy of forecast.io.

METAR (pilot weather report)

Closest report is Waterloo Airport, 35.6 nm (65.9 km) SSE. Retrieved 2019/09/19 05:00 UTC (27 minutes ago):

CYKF 190500Z AUTO 06003KT 9SM SCT240 12/12 A3025 RMK SLP245

TAF (pilot weather forecast)

Closest forecast is Waterloo Airport, 35.6 nm (65.9 km) SSE. Retrieved 2019/09/19 02:39 UTC (3 hours ago):

TAF CYKF 190138Z 1902/1914 11005KT P6SM FEW240 PROB30 1909/1912 1SM BR RMK FCST BASED ON AUTO OBS. NXT FCST BY 190800Z